sensor_id;sensor_type;location;lat;lon;timestamp;temperature;humidity
7331;DHT22;3706;49.198;7.064;2024-02-26T00:00:12;7.00;99.90
7331;DHT22;3706;49.198;7.064;2024-02-26T00:02:45;7.00;99.90
7331;DHT22;3706;49.198;7.064;2024-02-26T00:05:12;6.90;99.90
7331;DHT22;3706;49.198;7.064;2024-02-26T00:07:39;6.80;99.90
7331;DHT22;3706;49.198;7.064;2024-02-26T00:10:07;6.70;99.90
7331;DHT22;3706;49.198;7.064;2024-02-26T00:12:35;6.60;99.90
7331;DHT22;3706;49.198;7.064;2024-02-26T00:15:05;6.60;99.90
7331;DHT22;3706;49.198;7.064;2024-02-26T00:17:32;6.60;99.90
7331;DHT22;3706;49.198;7.064;2024-02-26T00:19:59;6.50;99.90
7331;DHT22;3706;49.198;7.064;2024-02-26T00:22:26;6.50;99.90
7331;DHT22;3706;49.198;7.064;2024-02-26T00:24:59;6.50;99.90
7331;DHT22;3706;49.198;7.064;2024-02-26T00:27:27;6.40;99.90
7331;DHT22;3706;49.198;7.064;2024-02-26T00:29:56;6.40;99.90
7331;DHT22;3706;49.198;7.064;2024-02-26T00:32:23;6.40;99.90
7331;DHT22;3706;49.198;7.064;2024-02-26T00:34:50;6.40;99.90
7331;DHT22;3706;49.198;7.064;2024-02-26T00:37:17;6.30;99.90
7331;DHT22;3706;49.198;7.064;2024-02-26T00:39:44;6.30;99.90
7331;DHT22;3706;49.198;7.064;2024-02-26T00:42:12;6.30;99.90
7331;DHT22;3706;49.198;7.064;2024-02-26T00:44:39;6.30;99.90
7331;DHT22;3706;49.198;7.064;2024-02-26T00:47:10;6.30;99.90
7331;DHT22;3706;49.198;7.064;2024-02-26T00:49:37;6.30;99.90
7331;DHT22;3706;49.198;7.064;2024-02-26T00:52:04;6.20;99.90
7331;DHT22;3706;49.198;7.064;2024-02-26T00:54:32;6.20;99.90
7331;DHT22;3706;49.198;7.064;2024-02-26T00:56:59;6.20;99.90
7331;DHT22;3706;49.198;7.064;2024-02-26T00:59:26;6.20;99.90
7331;DHT22;3706;49.198;7.064;2024-02-26T01:01:53;6.10;99.90
7331;DHT22;3706;49.198;7.064;2024-02-26T01:04:21;6.10;99.90
7331;DHT22;3706;49.198;7.064;2024-02-26T01:06:48;6.10;99.90
7331;DHT22;3706;49.198;7.064;2024-02-26T01:09:14;6.00;99.90
7331;DHT22;3706;49.198;7.064;2024-02-26T01:11:43;6.00;99.90
7331;DHT22;3706;49.198;7.064;2024-02-26T01:14:10;6.00;99.90
7331;DHT22;3706;49.198;7.064;2024-02-26T01:16:37;6.00;99.90
7331;DHT22;3706;49.198;7.064;2024-02-26T01:19:05;6.00;99.90
7331;DHT22;3706;49.198;7.064;2024-02-26T01:21:33;5.90;99.90
7331;DHT22;3706;49.198;7.064;2024-02-26T01:24:00;5.90;99.90
7331;DHT22;3706;49.198;7.064;2024-02-26T01:26:27;5.90;99.90
7331;DHT22;3706;49.198;7.064;2024-02-26T01:28:54;5.90;99.90
7331;DHT22;3706;49.198;7.064;2024-02-26T01:31:21;5.90;99.90
7331;DHT22;3706;49.198;7.064;2024-02-26T01:33:48;5.90;99.90
7331;DHT22;3706;49.198;7.064;2024-02-26T01:36:15;5.90;99.90
7331;DHT22;3706;49.198;7.064;2024-02-26T01:38:44;5.90;99.90
7331;DHT22;3706;49.198;7.064;2024-02-26T01:41:11;5.80;99.90
7331;DHT22;3706;49.198;7.064;2024-02-26T01:43:40;5.80;99.90
7331;DHT22;3706;49.198;7.064;2024-02-26T01:46:11;5.80;99.90
7331;DHT22;3706;49.198;7.064;2024-02-26T01:48:40;5.80;99.90
7331;DHT22;3706;49.198;7.064;2024-02-26T01:51:08;5.80;99.90
7331;DHT22;3706;49.198;7.064;2024-02-26T01:53:35;5.70;99.90
7331;DHT22;3706;49.198;7.064;2024-02-26T01:56:04;5.70;99.90
7331;DHT22;3706;49.198;7.064;2024-02-26T01:58:32;5.80;99.90
7331;DHT22;3706;49.198;7.064;2024-02-26T02:00:59;5.70;99.90
7331;DHT22;3706;49.198;7.064;2024-02-26T02:03:28;5.70;99.90
7331;DHT22;3706;49.198;7.064;2024-02-26T02:05:55;5.70;99.90
7331;DHT22;3706;49.198;7.064;2024-02-26T02:08:23;5.80;99.90
7331;DHT22;3706;49.198;7.064;2024-02-26T02:10:53;5.60;99.90
7331;DHT22;3706;49.198;7.064;2024-02-26T02:13:21;5.60;99.90
7331;DHT22;3706;49.198;7.064;2024-02-26T02:15:48;5.70;99.90
7331;DHT22;3706;49.198;7.064;2024-02-26T02:18:16;5.70;99.90
7331;DHT22;3706;49.198;7.064;2024-02-26T02:20:44;5.60;99.90
7331;DHT22;3706;49.198;7.064;2024-02-26T02:23:11;5.60;99.90
7331;DHT22;3706;49.198;7.064;2024-02-26T02:25:38;5.60;99.90
7331;DHT22;3706;49.198;7.064;2024-02-26T02:28:06;5.50;99.90
7331;DHT22;3706;49.198;7.064;2024-02-26T02:30:33;5.50;99.90
7331;DHT22;3706;49.198;7.064;2024-02-26T02:33:01;5.50;99.90
7331;DHT22;3706;49.198;7.064;2024-02-26T02:35:31;5.70;99.90
7331;DHT22;3706;49.198;7.064;2024-02-26T02:38:00;5.50;99.90
7331;DHT22;3706;49.198;7.064;2024-02-26T02:40:27;5.60;99.90
7331;DHT22;3706;49.198;7.064;2024-02-26T02:42:54;5.60;99.90
7331;DHT22;3706;49.198;7.064;2024-02-26T02:45:21;5.60;99.90
7331;DHT22;3706;49.198;7.064;2024-02-26T02:47:48;5.60;99.90
7331;DHT22;3706;49.198;7.064;2024-02-26T02:50:15;5.60;99.90
7331;DHT22;3706;49.198;7.064;2024-02-26T02:52:42;5.60;99.90
7331;DHT22;3706;49.198;7.064;2024-02-26T02:55:10;5.60;99.90
7331;DHT22;3706;49.198;7.064;2024-02-26T02:57:38;5.60;99.90
7331;DHT22;3706;49.198;7.064;2024-02-26T03:00:07;5.60;99.90
7331;DHT22;3706;49.198;7.064;2024-02-26T03:02:34;5.70;99.90
7331;DHT22;3706;49.198;7.064;2024-02-26T03:05:02;5.70;99.90
7331;DHT22;3706;49.198;7.064;2024-02-26T03:07:29;5.70;99.90
7331;DHT22;3706;49.198;7.064;2024-02-26T03:09:56;5.70;99.90
7331;DHT22;3706;49.198;7.064;2024-02-26T03:12:25;5.70;99.90
7331;DHT22;3706;49.198;7.064;2024-02-26T03:14:53;5.80;99.90
7331;DHT22;3706;49.198;7.064;2024-02-26T03:17:21;5.80;99.90
7331;DHT22;3706;49.198;7.064;2024-02-26T03:19:52;5.80;99.90
7331;DHT22;3706;49.198;7.064;2024-02-26T03:22:22;5.70;99.90
7331;DHT22;3706;49.198;7.064;2024-02-26T03:24:49;5.80;99.90
7331;DHT22;3706;49.198;7.064;2024-02-26T03:27:17;5.80;99.90
7331;DHT22;3706;49.198;7.064;2024-02-26T03:29:45;5.80;99.90
7331;DHT22;3706;49.198;7.064;2024-02-26T03:32:13;5.80;99.90
7331;DHT22;3706;49.198;7.064;2024-02-26T03:34:40;5.80;99.90
7331;DHT22;3706;49.198;7.064;2024-02-26T03:37:07;5.80;99.90
7331;DHT22;3706;49.198;7.064;2024-02-26T03:39:36;5.70;99.90
7331;DHT22;3706;49.198;7.064;2024-02-26T03:42:03;5.70;99.90
7331;DHT22;3706;49.198;7.064;2024-02-26T03:44:30;5.80;99.90
7331;DHT22;3706;49.198;7.064;2024-02-26T03:46:59;5.80;99.90
7331;DHT22;3706;49.198;7.064;2024-02-26T03:49:26;5.70;99.90
7331;DHT22;3706;49.198;7.064;2024-02-26T03:51:53;5.80;99.90
7331;DHT22;3706;49.198;7.064;2024-02-26T03:54:23;5.80;99.90
7331;DHT22;3706;49.198;7.064;2024-02-26T03:56:50;5.80;99.90
7331;DHT22;3706;49.198;7.064;2024-02-26T03:59:17;5.80;99.90
7331;DHT22;3706;49.198;7.064;2024-02-26T04:01:45;5.80;99.90
7331;DHT22;3706;49.198;7.064;2024-02-26T04:04:14;5.80;99.90
7331;DHT22;3706;49.198;7.064;2024-02-26T04:06:44;5.80;99.90
7331;DHT22;3706;49.198;7.064;2024-02-26T04:09:11;5.80;99.90
7331;DHT22;3706;49.198;7.064;2024-02-26T04:11:38;5.70;99.90
7331;DHT22;3706;49.198;7.064;2024-02-26T04:14:05;5.80;99.90
7331;DHT22;3706;49.198;7.064;2024-02-26T04:16:34;5.80;99.90
7331;DHT22;3706;49.198;7.064;2024-02-26T04:19:01;5.80;99.90
7331;DHT22;3706;49.198;7.064;2024-02-26T04:21:29;5.80;99.90
7331;DHT22;3706;49.198;7.064;2024-02-26T04:23:56;5.80;99.90
7331;DHT22;3706;49.198;7.064;2024-02-26T04:26:27;5.80;99.90
7331;DHT22;3706;49.198;7.064;2024-02-26T04:28:54;5.80;99.90
7331;DHT22;3706;49.198;7.064;2024-02-26T04:31:21;5.80;99.90
7331;DHT22;3706;49.198;7.064;2024-02-26T04:33:48;5.80;99.90
7331;DHT22;3706;49.198;7.064;2024-02-26T04:36:15;5.80;99.90
7331;DHT22;3706;49.198;7.064;2024-02-26T04:38:44;5.80;99.90
7331;DHT22;3706;49.198;7.064;2024-02-26T04:41:11;5.80;99.90
7331;DHT22;3706;49.198;7.064;2024-02-26T04:43:39;5.80;99.90
7331;DHT22;3706;49.198;7.064;2024-02-26T04:46:07;5.80;99.90
7331;DHT22;3706;49.198;7.064;2024-02-26T04:48:34;5.80;99.90
7331;DHT22;3706;49.198;7.064;2024-02-26T04:51:02;5.80;99.90
7331;DHT22;3706;49.198;7.064;2024-02-26T04:53:29;5.80;99.90
7331;DHT22;3706;49.198;7.064;2024-02-26T04:55:58;5.80;99.90
7331;DHT22;3706;49.198;7.064;2024-02-26T04:58:25;5.80;99.90
7331;DHT22;3706;49.198;7.064;2024-02-26T05:00:52;6.00;99.90
7331;DHT22;3706;49.198;7.064;2024-02-26T05:03:20;5.80;99.90
7331;DHT22;3706;49.198;7.064;2024-02-26T05:05:47;5.80;99.90
7331;DHT22;3706;49.198;7.064;2024-02-26T05:08:14;5.80;99.90
7331;DHT22;3706;49.198;7.064;2024-02-26T05:10:40;5.80;99.90
7331;DHT22;3706;49.198;7.064;2024-02-26T05:13:10;5.80;99.90
7331;DHT22;3706;49.198;7.064;2024-02-26T05:15:37;5.80;99.90
7331;DHT22;3706;49.198;7.064;2024-02-26T05:18:04;5.80;99.90
7331;DHT22;3706;49.198;7.064;2024-02-26T05:20:36;5.80;99.90
7331;DHT22;3706;49.198;7.064;2024-02-26T05:23:09;5.80;99.90
7331;DHT22;3706;49.198;7.064;2024-02-26T05:25:38;5.90;99.90
7331;DHT22;3706;49.198;7.064;2024-02-26T05:28:06;5.80;99.90
7331;DHT22;3706;49.198;7.064;2024-02-26T05:30:34;5.70;99.90
7331;DHT22;3706;49.198;7.064;2024-02-26T05:33:01;5.70;99.90
7331;DHT22;3706;49.198;7.064;2024-02-26T05:35:28;5.60;99.90
7331;DHT22;3706;49.198;7.064;2024-02-26T05:37:55;5.70;99.90
7331;DHT22;3706;49.198;7.064;2024-02-26T05:40:22;5.70;99.90
7331;DHT22;3706;49.198;7.064;2024-02-26T05:42:48;5.70;99.90
7331;DHT22;3706;49.198;7.064;2024-02-26T05:45:16;5.70;99.90
7331;DHT22;3706;49.198;7.064;2024-02-26T05:47:44;5.60;99.90
7331;DHT22;3706;49.198;7.064;2024-02-26T05:50:11;5.60;99.90
7331;DHT22;3706;49.198;7.064;2024-02-26T05:52:41;5.60;99.90
7331;DHT22;3706;49.198;7.064;2024-02-26T05:55:08;5.60;99.90
7331;DHT22;3706;49.198;7.064;2024-02-26T05:57:36;5.60;99.90
7331;DHT22;3706;49.198;7.064;2024-02-26T06:00:04;5.60;99.90
7331;DHT22;3706;49.198;7.064;2024-02-26T06:02:32;5.70;99.90
7331;DHT22;3706;49.198;7.064;2024-02-26T06:05:00;5.60;99.90
7331;DHT22;3706;49.198;7.064;2024-02-26T06:07:27;5.60;99.90
7331;DHT22;3706;49.198;7.064;2024-02-26T06:09:54;5.60;99.90
7331;DHT22;3706;49.198;7.064;2024-02-26T06:12:21;5.60;99.90
7331;DHT22;3706;49.198;7.064;2024-02-26T06:14:48;5.70;99.90
7331;DHT22;3706;49.198;7.064;2024-02-26T06:17:18;5.70;99.90
7331;DHT22;3706;49.198;7.064;2024-02-26T06:19:45;5.70;99.90
7331;DHT22;3706;49.198;7.064;2024-02-26T06:22:14;5.70;99.90
7331;DHT22;3706;49.198;7.064;2024-02-26T06:24:42;5.70;99.90
7331;DHT22;3706;49.198;7.064;2024-02-26T06:27:09;5.70;99.90
7331;DHT22;3706;49.198;7.064;2024-02-26T06:29:36;5.70;99.90
7331;DHT22;3706;49.198;7.064;2024-02-26T06:32:04;5.60;99.90
7331;DHT22;3706;49.198;7.064;2024-02-26T06:34:31;5.70;99.90
7331;DHT22;3706;49.198;7.064;2024-02-26T06:36:58;5.70;99.90
7331;DHT22;3706;49.198;7.064;2024-02-26T06:39:29;5.80;99.90
7331;DHT22;3706;49.198;7.064;2024-02-26T06:41:58;5.70;99.90
7331;DHT22;3706;49.198;7.064;2024-02-26T06:44:27;5.70;99.90
7331;DHT22;3706;49.198;7.064;2024-02-26T06:46:57;5.70;99.90
7331;DHT22;3706;49.198;7.064;2024-02-26T06:49:25;5.70;99.90
7331;DHT22;3706;49.198;7.064;2024-02-26T06:51:52;5.70;99.90
7331;DHT22;3706;49.198;7.064;2024-02-26T06:54:19;5.70;99.90
7331;DHT22;3706;49.198;7.064;2024-02-26T06:56:47;5.80;99.90
7331;DHT22;3706;49.198;7.064;2024-02-26T06:59:14;5.80;99.90
7331;DHT22;3706;49.198;7.064;2024-02-26T07:01:48;5.90;99.90
7331;DHT22;3706;49.198;7.064;2024-02-26T07:04:15;5.80;99.90
7331;DHT22;3706;49.198;7.064;2024-02-26T07:06:43;5.80;99.90
7331;DHT22;3706;49.198;7.064;2024-02-26T07:09:12;5.80;99.90
7331;DHT22;3706;49.198;7.064;2024-02-26T07:11:39;5.90;99.90
7331;DHT22;3706;49.198;7.064;2024-02-26T07:14:09;5.90;99.90
7331;DHT22;3706;49.198;7.064;2024-02-26T07:16:36;5.90;99.90
7331;DHT22;3706;49.198;7.064;2024-02-26T07:19:03;6.00;99.90
7331;DHT22;3706;49.198;7.064;2024-02-26T07:21:33;6.00;99.90
7331;DHT22;3706;49.198;7.064;2024-02-26T07:24:02;6.00;99.90
7331;DHT22;3706;49.198;7.064;2024-02-26T07:26:29;6.10;99.90
7331;DHT22;3706;49.198;7.064;2024-02-26T07:28:56;6.10;99.90
7331;DHT22;3706;49.198;7.064;2024-02-26T07:31:25;6.20;99.90
7331;DHT22;3706;49.198;7.064;2024-02-26T07:33:52;6.20;99.90
7331;DHT22;3706;49.198;7.064;2024-02-26T07:36:19;6.30;99.90
7331;DHT22;3706;49.198;7.064;2024-02-26T07:38:46;6.30;99.90
7331;DHT22;3706;49.198;7.064;2024-02-26T07:41:13;6.40;99.90
7331;DHT22;3706;49.198;7.064;2024-02-26T07:44:01;6.40;99.90
7331;DHT22;3706;49.198;7.064;2024-02-26T07:46:29;6.50;99.90
7331;DHT22;3706;49.198;7.064;2024-02-26T07:48:56;6.50;99.90
7331;DHT22;3706;49.198;7.064;2024-02-26T07:51:23;6.60;99.90
7331;DHT22;3706;49.198;7.064;2024-02-26T07:53:50;6.70;99.90
7331;DHT22;3706;49.198;7.064;2024-02-26T07:56:21;6.80;99.90
7331;DHT22;3706;49.198;7.064;2024-02-26T07:58:56;6.90;99.90
7331;DHT22;3706;49.198;7.064;2024-02-26T08:01:34;7.00;99.90
7331;DHT22;3706;49.198;7.064;2024-02-26T08:04:04;7.20;99.90
7331;DHT22;3706;49.198;7.064;2024-02-26T08:06:57;7.30;99.90
7331;DHT22;3706;49.198;7.064;2024-02-26T08:23:15;8.50;99.90
7331;DHT22;3706;49.198;7.064;2024-02-26T08:26:02;8.80;99.90
7331;DHT22;3706;49.198;7.064;2024-02-26T08:28:32;9.30;99.90
7331;DHT22;3706;49.198;7.064;2024-02-26T08:31:00;9.60;99.90
7331;DHT22;3706;49.198;7.064;2024-02-26T08:39:26;10.00;99.90
7331;DHT22;3706;49.198;7.064;2024-02-26T08:55:41;9.70;99.90
7331;DHT22;3706;49.198;7.064;2024-02-26T08:58:27;9.70;99.90
7331;DHT22;3706;49.198;7.064;2024-02-26T09:11:46;9.70;99.90
7331;DHT22;3706;49.198;7.064;2024-02-26T09:14:22;9.90;99.90
7331;DHT22;3706;49.198;7.064;2024-02-26T09:17:06;10.10;99.90
7331;DHT22;3706;49.198;7.064;2024-02-26T09:20:32;10.30;99.90
7331;DHT22;3706;49.198;7.064;2024-02-26T09:25:59;10.50;99.90
7331;DHT22;3706;49.198;7.064;2024-02-26T09:31:47;10.50;99.90
7331;DHT22;3706;49.198;7.064;2024-02-26T09:34:30;10.50;99.90
7331;DHT22;3706;49.198;7.064;2024-02-26T09:36:59;10.50;99.90
7331;DHT22;3706;49.198;7.064;2024-02-26T09:39:27;10.60;99.90
7331;DHT22;3706;49.198;7.064;2024-02-26T09:42:27;10.70;99.90
7331;DHT22;3706;49.198;7.064;2024-02-26T09:45:34;10.80;99.90
7331;DHT22;3706;49.198;7.064;2024-02-26T09:51:44;11.00;99.90
7331;DHT22;3706;49.198;7.064;2024-02-26T10:04:29;11.80;99.90
7331;DHT22;3706;49.198;7.064;2024-02-26T10:07:23;12.00;99.90
7331;DHT22;3706;49.198;7.064;2024-02-26T10:16:35;12.20;99.90
7331;DHT22;3706;49.198;7.064;2024-02-26T10:19:02;12.10;99.90
7331;DHT22;3706;49.198;7.064;2024-02-26T10:34:47;13.10;99.90
7331;DHT22;3706;49.198;7.064;2024-02-26T10:37:15;13.20;99.90
7331;DHT22;3706;49.198;7.064;2024-02-26T10:43:07;13.50;99.90
7331;DHT22;3706;49.198;7.064;2024-02-26T10:45:34;13.60;99.90
7331;DHT22;3706;49.198;7.064;2024-02-26T10:48:05;13.80;99.90
7331;DHT22;3706;49.198;7.064;2024-02-26T10:50:40;13.80;99.90
7331;DHT22;3706;49.198;7.064;2024-02-26T10:55:02;14.00;99.90
7331;DHT22;3706;49.198;7.064;2024-02-26T11:18:04;15.00;99.90
7331;DHT22;3706;49.198;7.064;2024-02-26T11:21:16;15.20;99.90
7331;DHT22;3706;49.198;7.064;2024-02-26T11:25:31;15.30;99.90
7331;DHT22;3706;49.198;7.064;2024-02-26T11:27:11;15.40;99.90
7331;DHT22;3706;49.198;7.064;2024-02-26T11:29:44;15.60;99.90
7331;DHT22;3706;49.198;7.064;2024-02-26T11:32:14;15.80;99.90
7331;DHT22;3706;49.198;7.064;2024-02-26T11:41:40;16.60;99.90
7331;DHT22;3706;49.198;7.064;2024-02-26T11:44:08;16.50;99.90
7331;DHT22;3706;49.198;7.064;2024-02-26T11:46:40;16.40;99.90
7331;DHT22;3706;49.198;7.064;2024-02-26T11:49:32;16.20;99.90
7331;DHT22;3706;49.198;7.064;2024-02-26T11:52:08;15.90;99.90
7331;DHT22;3706;49.198;7.064;2024-02-26T11:54:39;15.90;99.90
7331;DHT22;3706;49.198;7.064;2024-02-26T11:57:23;15.90;99.90
7331;DHT22;3706;49.198;7.064;2024-02-26T11:59:50;15.90;99.90
7331;DHT22;3706;49.198;7.064;2024-02-26T12:02:43;16.10;99.90
7331;DHT22;3706;49.198;7.064;2024-02-26T12:05:12;16.30;99.90
7331;DHT22;3706;49.198;7.064;2024-02-26T12:11:14;16.40;99.90
7331;DHT22;3706;49.198;7.064;2024-02-26T12:13:55;16.20;99.90
7331;DHT22;3706;49.198;7.064;2024-02-26T12:16:35;16.20;99.90
7331;DHT22;3706;49.198;7.064;2024-02-26T12:19:06;16.40;99.90
7331;DHT22;3706;49.198;7.064;2024-02-26T12:22:17;16.50;99.90
7331;DHT22;3706;49.198;7.064;2024-02-26T12:31:39;16.60;99.90
7331;DHT22;3706;49.198;7.064;2024-02-26T12:34:08;16.70;99.90
7331;DHT22;3706;49.198;7.064;2024-02-26T12:36:36;16.60;99.90
7331;DHT22;3706;49.198;7.064;2024-02-26T12:39:04;16.50;99.90
7331;DHT22;3706;49.198;7.064;2024-02-26T12:41:32;16.60;99.90
7331;DHT22;3706;49.198;7.064;2024-02-26T12:44:02;16.40;99.90
7331;DHT22;3706;49.198;7.064;2024-02-26T12:46:29;16.20;99.90
7331;DHT22;3706;49.198;7.064;2024-02-26T12:48:56;16.30;99.90
7331;DHT22;3706;49.198;7.064;2024-02-26T12:51:26;16.60;99.90
7331;DHT22;3706;49.198;7.064;2024-02-26T12:53:57;16.80;99.90
7331;DHT22;3706;49.198;7.064;2024-02-26T12:56:26;16.90;99.90
7331;DHT22;3706;49.198;7.064;2024-02-26T12:58:54;17.10;99.90
7331;DHT22;3706;49.198;7.064;2024-02-26T13:01:23;17.50;99.90
7331;DHT22;3706;49.198;7.064;2024-02-26T13:03:51;17.80;99.90
7331;DHT22;3706;49.198;7.064;2024-02-26T13:06:20;17.70;99.90
7331;DHT22;3706;49.198;7.064;2024-02-26T13:08:55;17.70;99.90
7331;DHT22;3706;49.198;7.064;2024-02-26T13:11:23;18.10;99.90
7331;DHT22;3706;49.198;7.064;2024-02-26T13:13:51;18.50;99.90
7331;DHT22;3706;49.198;7.064;2024-02-26T13:16:18;18.20;99.90
7331;DHT22;3706;49.198;7.064;2024-02-26T13:18:45;17.90;99.90
7331;DHT22;3706;49.198;7.064;2024-02-26T13:21:13;17.20;99.90
7331;DHT22;3706;49.198;7.064;2024-02-26T13:23:51;16.70;99.90
7331;DHT22;3706;49.198;7.064;2024-02-26T13:26:22;16.10;99.90
7331;DHT22;3706;49.198;7.064;2024-02-26T13:28:59;15.80;99.90
7331;DHT22;3706;49.198;7.064;2024-02-26T13:31:26;15.50;99.90
7331;DHT22;3706;49.198;7.064;2024-02-26T13:33:54;15.20;99.90
7331;DHT22;3706;49.198;7.064;2024-02-26T13:36:21;15.00;99.90
7331;DHT22;3706;49.198;7.064;2024-02-26T13:38:53;14.80;99.90
7331;DHT22;3706;49.198;7.064;2024-02-26T13:41:20;14.70;99.90
7331;DHT22;3706;49.198;7.064;2024-02-26T13:43:50;14.60;99.90
7331;DHT22;3706;49.198;7.064;2024-02-26T13:46:18;14.50;99.90
7331;DHT22;3706;49.198;7.064;2024-02-26T13:48:45;14.50;99.90
7331;DHT22;3706;49.198;7.064;2024-02-26T13:51:12;14.40;99.90
7331;DHT22;3706;49.198;7.064;2024-02-26T13:53:39;14.20;99.90
7331;DHT22;3706;49.198;7.064;2024-02-26T13:56:08;14.00;99.90
7331;DHT22;3706;49.198;7.064;2024-02-26T13:58:36;13.90;99.90
7331;DHT22;3706;49.198;7.064;2024-02-26T14:01:03;13.70;99.90
7331;DHT22;3706;49.198;7.064;2024-02-26T14:03:31;13.70;99.90
7331;DHT22;3706;49.198;7.064;2024-02-26T14:05:58;13.60;99.90
7331;DHT22;3706;49.198;7.064;2024-02-26T14:08:25;13.60;99.90
7331;DHT22;3706;49.198;7.064;2024-02-26T14:10:52;13.60;99.90
7331;DHT22;3706;49.198;7.064;2024-02-26T14:13:20;13.70;99.90
7331;DHT22;3706;49.198;7.064;2024-02-26T14:15:47;13.80;99.90
7331;DHT22;3706;49.198;7.064;2024-02-26T14:18:14;13.90;99.90
7331;DHT22;3706;49.198;7.064;2024-02-26T14:20:41;13.90;99.90
7331;DHT22;3706;49.198;7.064;2024-02-26T14:23:08;13.80;99.90
7331;DHT22;3706;49.198;7.064;2024-02-26T14:25:35;13.70;99.90
7331;DHT22;3706;49.198;7.064;2024-02-26T14:28:08;13.70;99.90
7331;DHT22;3706;49.198;7.064;2024-02-26T14:30:42;13.60;99.90
7331;DHT22;3706;49.198;7.064;2024-02-26T14:33:09;13.50;99.90
7331;DHT22;3706;49.198;7.064;2024-02-26T14:35:36;13.40;99.90
7331;DHT22;3706;49.198;7.064;2024-02-26T14:38:04;13.30;99.90
7331;DHT22;3706;49.198;7.064;2024-02-26T14:40:30;13.20;99.90
7331;DHT22;3706;49.198;7.064;2024-02-26T14:42:57;13.00;99.90
7331;DHT22;3706;49.198;7.064;2024-02-26T14:45:25;12.90;99.90
7331;DHT22;3706;49.198;7.064;2024-02-26T14:47:53;12.80;99.90
7331;DHT22;3706;49.198;7.064;2024-02-26T14:50:20;12.70;99.90
7331;DHT22;3706;49.198;7.064;2024-02-26T14:52:47;12.70;99.90
7331;DHT22;3706;49.198;7.064;2024-02-26T14:55:14;12.70;99.90
7331;DHT22;3706;49.198;7.064;2024-02-26T14:57:41;12.70;99.90
7331;DHT22;3706;49.198;7.064;2024-02-26T15:27:06;12.30;99.90
7331;DHT22;3706;49.198;7.064;2024-02-26T15:29:42;12.20;99.90
7331;DHT22;3706;49.198;7.064;2024-02-26T15:32:10;11.90;99.90
7331;DHT22;3706;49.198;7.064;2024-02-26T15:34:37;11.80;99.90
7331;DHT22;3706;49.198;7.064;2024-02-26T15:37:07;11.70;99.90
7331;DHT22;3706;49.198;7.064;2024-02-26T15:39:34;11.50;99.90
7331;DHT22;3706;49.198;7.064;2024-02-26T15:42:03;11.50;99.90
7331;DHT22;3706;49.198;7.064;2024-02-26T15:44:30;11.40;99.90
7331;DHT22;3706;49.198;7.064;2024-02-26T15:46:57;11.40;99.90
7331;DHT22;3706;49.198;7.064;2024-02-26T15:49:27;11.30;99.90
7331;DHT22;3706;49.198;7.064;2024-02-26T15:51:54;11.30;99.90
7331;DHT22;3706;49.198;7.064;2024-02-26T15:54:21;11.30;99.90
7331;DHT22;3706;49.198;7.064;2024-02-26T15:56:48;11.40;99.90
7331;DHT22;3706;49.198;7.064;2024-02-26T15:59:17;11.30;99.90
7331;DHT22;3706;49.198;7.064;2024-02-26T16:01:45;11.40;99.90
7331;DHT22;3706;49.198;7.064;2024-02-26T16:04:13;11.50;99.90
7331;DHT22;3706;49.198;7.064;2024-02-26T16:06:44;11.50;99.90
7331;DHT22;3706;49.198;7.064;2024-02-26T16:09:12;11.50;99.90
7331;DHT22;3706;49.198;7.064;2024-02-26T16:11:39;11.40;99.90
7331;DHT22;3706;49.198;7.064;2024-02-26T16:14:12;11.30;99.90
7331;DHT22;3706;49.198;7.064;2024-02-26T16:16:49;11.20;99.90
7331;DHT22;3706;49.198;7.064;2024-02-26T16:19:17;11.10;99.90
7331;DHT22;3706;49.198;7.064;2024-02-26T16:21:44;11.00;99.90
7331;DHT22;3706;49.198;7.064;2024-02-26T16:24:11;10.90;99.90
7331;DHT22;3706;49.198;7.064;2024-02-26T16:26:38;10.80;99.90
7331;DHT22;3706;49.198;7.064;2024-02-26T16:29:05;10.60;99.90
7331;DHT22;3706;49.198;7.064;2024-02-26T16:31:32;10.50;99.90
7331;DHT22;3706;49.198;7.064;2024-02-26T16:34:00;10.50;99.90
7331;DHT22;3706;49.198;7.064;2024-02-26T16:36:27;10.40;99.90
7331;DHT22;3706;49.198;7.064;2024-02-26T16:38:54;10.40;99.90
7331;DHT22;3706;49.198;7.064;2024-02-26T16:41:21;10.30;99.90
7331;DHT22;3706;49.198;7.064;2024-02-26T16:43:50;10.30;99.90
7331;DHT22;3706;49.198;7.064;2024-02-26T16:46:40;10.30;99.90
7331;DHT22;3706;49.198;7.064;2024-02-26T16:49:08;10.20;99.90
7331;DHT22;3706;49.198;7.064;2024-02-26T16:51:37;10.20;99.90
7331;DHT22;3706;49.198;7.064;2024-02-26T16:54:04;10.10;99.90
7331;DHT22;3706;49.198;7.064;2024-02-26T16:56:31;10.00;99.90
7331;DHT22;3706;49.198;7.064;2024-02-26T16:58:58;10.00;99.90
7331;DHT22;3706;49.198;7.064;2024-02-26T17:01:25;10.00;99.90
7331;DHT22;3706;49.198;7.064;2024-02-26T17:03:52;10.00;99.90
7331;DHT22;3706;49.198;7.064;2024-02-26T17:06:21;10.00;99.90
7331;DHT22;3706;49.198;7.064;2024-02-26T17:08:50;10.00;99.90
7331;DHT22;3706;49.198;7.064;2024-02-26T17:11:18;10.00;99.90
7331;DHT22;3706;49.198;7.064;2024-02-26T17:13:45;9.90;99.90
7331;DHT22;3706;49.198;7.064;2024-02-26T17:16:12;9.90;99.90
7331;DHT22;3706;49.198;7.064;2024-02-26T17:18:39;9.80;99.90
7331;DHT22;3706;49.198;7.064;2024-02-26T17:21:06;9.70;99.90
7331;DHT22;3706;49.198;7.064;2024-02-26T17:23:35;9.60;99.90
7331;DHT22;3706;49.198;7.064;2024-02-26T17:26:03;9.60;99.90
7331;DHT22;3706;49.198;7.064;2024-02-26T17:28:32;9.50;99.90
7331;DHT22;3706;49.198;7.064;2024-02-26T17:31:01;9.40;99.90
7331;DHT22;3706;49.198;7.064;2024-02-26T17:33:27;9.40;99.90
7331;DHT22;3706;49.198;7.064;2024-02-26T17:35:54;9.40;99.90
7331;DHT22;3706;49.198;7.064;2024-02-26T17:38:21;9.40;99.90
7331;DHT22;3706;49.198;7.064;2024-02-26T17:40:49;9.30;99.90
7331;DHT22;3706;49.198;7.064;2024-02-26T17:43:17;9.20;99.90
7331;DHT22;3706;49.198;7.064;2024-02-26T17:45:44;9.20;99.90
7331;DHT22;3706;49.198;7.064;2024-02-26T17:48:12;9.20;99.90
7331;DHT22;3706;49.198;7.064;2024-02-26T17:50:39;9.20;99.90
7331;DHT22;3706;49.198;7.064;2024-02-26T17:53:06;9.10;99.90
7331;DHT22;3706;49.198;7.064;2024-02-26T17:55:33;9.10;99.90
7331;DHT22;3706;49.198;7.064;2024-02-26T17:58:01;9.00;99.90
7331;DHT22;3706;49.198;7.064;2024-02-26T18:00:28;9.00;99.90
7331;DHT22;3706;49.198;7.064;2024-02-26T18:02:56;8.90;99.90
7331;DHT22;3706;49.198;7.064;2024-02-26T18:05:23;8.80;99.90
7331;DHT22;3706;49.198;7.064;2024-02-26T18:07:51;8.80;99.90
7331;DHT22;3706;49.198;7.064;2024-02-26T18:10:18;8.70;99.90
7331;DHT22;3706;49.198;7.064;2024-02-26T18:12:47;8.70;99.90
7331;DHT22;3706;49.198;7.064;2024-02-26T18:15:15;8.60;99.90
7331;DHT22;3706;49.198;7.064;2024-02-26T18:17:42;8.60;99.90
7331;DHT22;3706;49.198;7.064;2024-02-26T18:20:11;8.50;99.90
7331;DHT22;3706;49.198;7.064;2024-02-26T18:22:38;8.40;99.90
7331;DHT22;3706;49.198;7.064;2024-02-26T18:25:05;8.30;99.90
7331;DHT22;3706;49.198;7.064;2024-02-26T18:27:33;8.30;99.90
7331;DHT22;3706;49.198;7.064;2024-02-26T18:30:01;8.20;99.90
7331;DHT22;3706;49.198;7.064;2024-02-26T18:32:30;8.10;99.90
7331;DHT22;3706;49.198;7.064;2024-02-26T18:34:58;8.00;99.90
7331;DHT22;3706;49.198;7.064;2024-02-26T18:37:25;8.00;99.90
7331;DHT22;3706;49.198;7.064;2024-02-26T18:39:52;7.90;99.90
7331;DHT22;3706;49.198;7.064;2024-02-26T18:42:19;7.90;99.90
7331;DHT22;3706;49.198;7.064;2024-02-26T18:44:46;7.80;99.90
7331;DHT22;3706;49.198;7.064;2024-02-26T18:47:13;7.70;99.90
7331;DHT22;3706;49.198;7.064;2024-02-26T18:49:44;7.60;99.90
7331;DHT22;3706;49.198;7.064;2024-02-26T18:52:11;7.60;99.90
7331;DHT22;3706;49.198;7.064;2024-02-26T18:54:37;7.50;99.90
7331;DHT22;3706;49.198;7.064;2024-02-26T18:57:06;7.50;99.90
7331;DHT22;3706;49.198;7.064;2024-02-26T18:59:33;7.50;99.90